createdAt,value
2018-04-27T00:00:41.061Z,11.14
2018-04-27T00:03:07.513Z,11.08
2018-04-27T00:05:33.879Z,11.10
2018-04-27T00:08:00.396Z,11.01
2018-04-27T00:10:26.864Z,10.91
2018-04-27T00:12:53.247Z,10.86
2018-04-27T00:15:19.637Z,10.77
2018-04-27T00:17:46.161Z,10.66
2018-04-27T00:20:12.723Z,10.69
2018-04-27T00:22:39.188Z,10.63
2018-04-27T00:25:05.657Z,10.61
2018-04-27T00:27:32.078Z,10.61
2018-04-27T00:29:58.518Z,10.62
2018-04-27T00:32:24.932Z,10.60
2018-04-27T00:34:51.370Z,10.54
2018-04-27T00:37:17.892Z,10.47
2018-04-27T00:39:44.390Z,10.44
2018-04-27T00:42:10.808Z,10.41
2018-04-27T00:44:37.305Z,10.43
2018-04-27T00:47:03.725Z,10.41
2018-04-27T00:49:30.191Z,10.40
2018-04-27T00:51:56.715Z,10.40
2018-04-27T00:54:23.142Z,10.40
2018-04-27T00:56:49.597Z,10.36
2018-04-27T00:59:16.079Z,10.37
2018-04-27T01:01:42.481Z,10.42
2018-04-27T01:04:08.897Z,10.47
2018-04-27T01:06:35.322Z,10.55
2018-04-27T01:09:01.747Z,10.54
2018-04-27T01:11:28.158Z,10.44
2018-04-27T01:13:54.564Z,10.37
2018-04-27T01:16:20.982Z,10.40
2018-04-27T01:18:47.365Z,10.28
2018-04-27T01:21:13.847Z,10.25
2018-04-27T01:23:40.357Z,10.24
2018-04-27T01:26:06.840Z,10.17
2018-04-27T01:28:33.410Z,10.16
2018-04-27T01:30:59.820Z,10.13
2018-04-27T01:33:26.255Z,10.13
2018-04-27T01:35:52.728Z,10.16
2018-04-27T01:38:19.246Z,10.16
2018-04-27T01:40:45.711Z,10.14
2018-04-27T01:43:12.212Z,10.16
2018-04-27T01:45:38.609Z,10.22
2018-04-27T01:48:05.005Z,10.18
2018-04-27T01:50:31.415Z,10.14
2018-04-27T01:52:57.779Z,10.10
2018-04-27T01:55:24.159Z,10.10
2018-04-27T01:57:50.703Z,10.09
2018-04-27T02:00:17.152Z,10.06
2018-04-27T02:02:43.610Z,10.04
2018-04-27T02:05:10.064Z,9.97
2018-04-27T02:07:36.530Z,9.82
2018-04-27T02:10:02.921Z,9.77
2018-04-27T02:12:29.347Z,9.76
2018-04-27T02:14:55.805Z,9.69
2018-04-27T02:17:22.199Z,9.60
2018-04-27T02:19:48.657Z,9.54
2018-04-27T02:22:15.026Z,9.60
2018-04-27T02:24:41.348Z,9.60
2018-04-27T02:27:07.736Z,9.56
2018-04-27T02:29:34.130Z,9.56
2018-04-27T02:32:00.545Z,9.57
2018-04-27T02:34:26.951Z,9.49
2018-04-27T02:36:53.329Z,9.43
2018-04-27T02:39:19.764Z,9.39
2018-04-27T02:41:46.094Z,9.42
2018-04-27T02:44:12.500Z,9.43
2018-04-27T02:46:38.833Z,9.44
2018-04-27T02:49:05.248Z,9.34
2018-04-27T02:51:31.578Z,9.36
2018-04-27T02:53:58.085Z,9.31
2018-04-27T02:56:24.417Z,9.33
2018-04-27T02:58:50.804Z,9.38
2018-04-27T03:01:17.178Z,9.32
2018-04-27T03:03:43.549Z,9.41
2018-04-27T03:06:09.864Z,9.50
2018-04-27T03:08:36.281Z,9.43
2018-04-27T03:11:02.733Z,9.37
2018-04-27T03:13:29.068Z,9.33
2018-04-27T03:15:55.413Z,9.23
2018-04-27T03:18:21.799Z,9.20
2018-04-27T03:20:48.197Z,9.20
2018-04-27T03:23:14.547Z,9.18
2018-04-27T03:25:40.981Z,9.20
2018-04-27T03:28:07.436Z,9.24
2018-04-27T03:30:33.829Z,9.25
2018-04-27T03:33:00.245Z,9.20
2018-04-27T03:35:26.604Z,9.16
2018-04-27T03:37:53.046Z,9.20
2018-04-27T03:40:19.480Z,9.28
2018-04-27T03:42:45.864Z,9.35
2018-04-27T03:45:12.212Z,9.44
2018-04-27T03:47:38.732Z,9.60
2018-04-27T03:50:05.134Z,9.73
2018-04-27T03:52:31.558Z,9.76
2018-04-27T03:54:57.968Z,9.95
2018-04-27T03:57:24.309Z,10.37
2018-04-27T04:00:02.824Z,10.92
2018-04-27T04:02:41.409Z,11.19
2018-04-27T04:05:18.956Z,11.72
2018-04-27T04:07:46.422Z,12.50
2018-04-27T04:10:12.847Z,13.40
2018-04-27T04:12:39.347Z,13.93
2018-04-27T04:15:06.138Z,13.63
2018-04-27T04:17:32.591Z,14.02
2018-04-27T04:19:59.000Z,14.20
2018-04-27T04:22:25.362Z,14.04
2018-04-27T04:24:51.716Z,13.79
2018-04-27T04:27:18.316Z,13.72
2018-04-27T04:29:44.781Z,14.18
2018-04-27T04:32:11.147Z,14.39
2018-04-27T04:34:37.701Z,14.25
2018-04-27T04:37:04.125Z,14.44
2018-04-27T04:39:30.602Z,14.74
2018-04-27T04:41:57.000Z,14.20
2018-04-27T04:44:23.366Z,14.02
2018-04-27T04:46:49.687Z,14.81
2018-04-27T04:49:16.234Z,14.42
2018-04-27T04:51:42.648Z,14.06
2018-04-27T04:54:09.022Z,13.96
2018-04-27T04:56:35.529Z,13.54
2018-04-27T04:59:01.995Z,13.78
2018-04-27T05:01:28.383Z,14.29
2018-04-27T05:03:54.858Z,14.39
2018-04-27T05:06:21.323Z,14.89
2018-04-27T05:08:47.805Z,15.60
2018-04-27T05:11:14.329Z,16.08
2018-04-27T05:13:40.863Z,16.42
2018-04-27T05:16:07.295Z,16.07
2018-04-27T05:18:49.605Z,16.08
2018-04-27T05:21:16.044Z,16.38
2018-04-27T05:23:42.426Z,16.58
2018-04-27T05:26:08.966Z,16.86
2018-04-27T05:28:36.379Z,17.41
2018-04-27T05:31:14.988Z,17.59
2018-04-27T05:33:41.418Z,17.92
2018-04-27T05:36:07.781Z,17.71
2018-04-27T05:38:34.392Z,17.72
2018-04-27T05:41:00.895Z,17.71
2018-04-27T05:43:27.400Z,18.09
2018-04-27T05:45:53.921Z,17.73
2018-04-27T05:48:20.349Z,17.67
2018-04-27T05:50:46.888Z,17.64
2018-04-27T05:53:13.414Z,18.03
2018-04-27T05:55:39.899Z,18.00
2018-04-27T05:58:08.984Z,18.19
2018-04-27T06:00:35.544Z,17.64
2018-04-27T06:03:01.958Z,18.34
2018-04-27T06:05:28.407Z,18.65
2018-04-27T06:07:56.015Z,18.79
2018-04-27T06:10:22.526Z,19.42
2018-04-27T06:12:48.909Z,19.77
2018-04-27T06:15:15.323Z,19.47
2018-04-27T06:17:41.672Z,19.35
2018-04-27T06:20:08.038Z,19.82
2018-04-27T06:22:34.517Z,19.70
2018-04-27T06:25:01.645Z,19.95
2018-04-27T06:27:28.395Z,20.23
2018-04-27T06:29:54.930Z,20.27
2018-04-27T06:32:21.441Z,20.22
2018-04-27T06:34:47.821Z,20.48
2018-04-27T06:37:14.270Z,20.21
2018-04-27T06:39:40.738Z,20.39
2018-04-27T06:42:07.196Z,20.78
2018-04-27T06:44:33.746Z,20.96
2018-04-27T06:47:00.241Z,20.87
2018-04-27T06:49:26.705Z,21.12
2018-04-27T06:51:53.418Z,20.94
2018-04-27T06:54:19.865Z,20.81
2018-04-27T06:56:46.274Z,21.02
2018-04-27T06:59:12.898Z,20.97
2018-04-27T07:01:39.317Z,20.97
2018-04-27T07:04:05.802Z,20.77
2018-04-27T07:06:32.551Z,20.83
2018-04-27T07:08:58.978Z,21.30
2018-04-27T07:11:25.437Z,21.15
2018-04-27T07:13:51.885Z,21.40
2018-04-27T07:16:18.402Z,21.46
2018-04-27T07:18:44.802Z,21.36
2018-04-27T07:21:11.225Z,21.49
2018-04-27T07:23:37.620Z,21.42
2018-04-27T07:26:04.013Z,21.48
2018-04-27T07:28:30.721Z,21.65
2018-04-27T07:30:57.216Z,21.69
2018-04-27T07:33:23.606Z,21.87
2018-04-27T07:35:49.992Z,21.77
2018-04-27T07:38:16.499Z,21.74
2018-04-27T07:40:42.869Z,21.87
2018-04-27T07:43:09.357Z,22.01
2018-04-27T07:45:35.765Z,22.29
2018-04-27T07:48:02.241Z,22.30
2018-04-27T07:50:28.659Z,22.03
2018-04-27T07:52:55.067Z,21.70
2018-04-27T07:55:21.513Z,22.26
2018-04-27T07:57:48.057Z,22.50
2018-04-27T08:00:14.644Z,22.28
2018-04-27T08:02:41.197Z,22.48
2018-04-27T08:05:07.814Z,22.60
2018-04-27T08:07:34.284Z,22.32
2018-04-27T08:10:00.921Z,22.35
2018-04-27T08:12:27.417Z,22.70
2018-04-27T08:14:53.791Z,22.70
2018-04-27T08:17:20.286Z,23.09
2018-04-27T08:19:46.698Z,22.81
2018-04-27T08:22:13.077Z,23.17
2018-04-27T08:24:39.632Z,23.10
2018-04-27T08:27:06.176Z,23.18
2018-04-27T08:29:32.709Z,23.33
2018-04-27T08:31:59.242Z,23.78
2018-04-27T08:34:25.720Z,23.33
2018-04-27T08:36:52.124Z,23.57
2018-04-27T08:39:18.645Z,23.90
2018-04-27T08:41:45.116Z,23.70
2018-04-27T08:44:12.047Z,23.78
2018-04-27T08:46:38.628Z,24.01
2018-04-27T08:49:05.263Z,24.35
2018-04-27T08:51:31.782Z,24.44
2018-04-27T08:53:58.274Z,24.58
2018-04-27T08:56:24.771Z,24.36
2018-04-27T08:58:51.364Z,24.08
2018-04-27T09:01:17.850Z,24.48
2018-04-27T09:03:44.732Z,24.50
2018-04-27T09:06:11.546Z,24.89
2018-04-27T09:08:38.144Z,24.94
2018-04-27T09:11:04.548Z,25.27
2018-04-27T09:13:31.098Z,25.31
2018-04-27T09:15:57.595Z,25.34
2018-04-27T09:18:24.214Z,25.54
2018-04-27T09:20:50.591Z,25.38
2018-04-27T09:23:17.047Z,25.44
2018-04-27T09:25:43.523Z,25.23
2018-04-27T09:28:09.919Z,25.36
2018-04-27T09:30:36.283Z,25.58
2018-04-27T09:33:02.709Z,25.57
2018-04-27T09:35:29.268Z,25.64
2018-04-27T09:37:55.912Z,25.67
2018-04-27T09:40:22.454Z,25.71
2018-04-27T09:42:48.901Z,25.55
2018-04-27T09:45:15.291Z,25.68
2018-04-27T09:47:41.774Z,25.63
2018-04-27T09:50:08.387Z,25.87
2018-04-27T09:52:34.773Z,25.93
2018-04-27T09:55:01.264Z,25.70
2018-04-27T09:57:27.778Z,25.75
2018-04-27T09:59:54.262Z,26.01
2018-04-27T10:02:21.222Z,26.65
2018-04-27T10:04:47.644Z,26.05
2018-04-27T10:07:14.114Z,26.18
2018-04-27T10:09:40.650Z,26.23
2018-04-27T10:12:07.164Z,26.43
2018-04-27T10:14:33.600Z,26.58
2018-04-27T10:17:00.064Z,26.75
2018-04-27T10:19:26.653Z,26.87
2018-04-27T10:21:53.129Z,26.43
2018-04-27T10:24:19.627Z,26.22
2018-04-27T10:26:46.087Z,25.84
2018-04-27T10:29:12.589Z,25.96
2018-04-27T10:31:39.037Z,25.95
2018-04-27T10:34:05.434Z,26.14
2018-04-27T10:36:32.016Z,26.31
2018-04-27T10:38:58.539Z,26.76
2018-04-27T10:41:26.007Z,26.81
2018-04-27T10:43:53.407Z,26.82
2018-04-27T10:46:20.049Z,26.81
2018-04-27T10:48:46.647Z,26.67
2018-04-27T10:51:13.142Z,26.17
2018-04-27T10:53:39.652Z,26.20
2018-04-27T10:56:06.169Z,26.38
2018-04-27T10:58:32.694Z,26.73
2018-04-27T11:00:59.289Z,26.58
2018-04-27T11:03:25.979Z,26.50
2018-04-27T11:05:52.472Z,26.31
2018-04-27T11:08:18.984Z,26.29
2018-04-27T11:10:45.484Z,25.81
2018-04-27T11:13:13.083Z,25.82
2018-04-27T11:15:40.589Z,25.71
2018-04-27T11:18:07.081Z,26.16
2018-04-27T11:20:33.640Z,26.30
2018-04-27T11:23:00.141Z,26.28
2018-04-27T11:25:26.618Z,26.61
2018-04-27T11:27:53.207Z,26.34
2018-04-27T11:30:19.805Z,26.39
2018-04-27T11:32:46.304Z,26.68
2018-04-27T11:35:12.855Z,26.64
2018-04-27T11:37:39.351Z,26.37
2018-04-27T11:40:05.852Z,26.32
2018-04-27T11:42:32.358Z,26.62
2018-04-27T11:44:58.913Z,26.29
2018-04-27T11:47:25.501Z,26.14
2018-04-27T11:49:52.072Z,26.37
2018-04-27T11:52:18.577Z,26.23
2018-04-27T11:54:45.764Z,26.46
2018-04-27T11:57:12.317Z,26.75
2018-04-27T11:59:38.856Z,26.57
2018-04-27T12:02:05.340Z,26.59
2018-04-27T12:04:32.229Z,26.77
2018-04-27T12:06:58.835Z,26.22
2018-04-27T12:09:25.347Z,26.47
2018-04-27T12:11:52.115Z,26.31
2018-04-27T12:14:18.838Z,26.38
2018-04-27T12:16:45.393Z,26.59
2018-04-27T12:19:11.833Z,27.24
2018-04-27T12:21:38.415Z,27.30
2018-04-27T12:24:04.927Z,26.81
2018-04-27T12:26:31.418Z,26.86
2018-04-27T12:28:58.678Z,27.05
2018-04-27T12:31:25.589Z,27.02
2018-04-27T12:33:52.079Z,27.30
2018-04-27T12:36:18.556Z,27.35
2018-04-27T12:38:45.286Z,27.95
2018-04-27T12:41:12.132Z,27.78
2018-04-27T12:43:38.742Z,27.76
2018-04-27T12:46:05.213Z,27.73
2018-04-27T12:48:31.800Z,27.57
2018-04-27T12:50:58.320Z,27.41
2018-04-27T12:53:24.776Z,27.81
2018-04-27T12:55:51.266Z,27.95
2018-04-27T12:58:18.007Z,27.43
2018-04-27T13:00:44.600Z,27.79
2018-04-27T13:03:11.085Z,27.52
2018-04-27T13:05:38.097Z,27.41
2018-04-27T13:08:05.078Z,27.76
2018-04-27T13:10:31.745Z,27.70
2018-04-27T13:12:58.358Z,27.60
2018-04-27T13:15:25.317Z,27.73
2018-04-27T13:17:51.748Z,27.34
2018-04-27T13:20:18.292Z,27.21
2018-04-27T13:22:44.714Z,27.51
2018-04-27T13:25:11.233Z,27.55
2018-04-27T13:27:37.712Z,27.52
2018-04-27T13:30:04.484Z,27.33
2018-04-27T13:32:30.980Z,27.43
2018-04-27T13:34:57.480Z,27.49
2018-04-27T13:37:23.939Z,27.13
2018-04-27T13:39:50.325Z,27.00
2018-04-27T13:42:16.754Z,27.01
2018-04-27T13:44:43.212Z,27.10
2018-04-27T13:47:09.567Z,26.81
2018-04-27T13:49:36.324Z,26.93
2018-04-27T13:52:02.854Z,26.70
2018-04-27T13:54:29.273Z,26.71
2018-04-27T13:56:55.737Z,26.53
2018-04-27T13:59:22.197Z,26.44
2018-04-27T14:01:48.666Z,26.47
2018-04-27T14:04:15.116Z,26.28
2018-04-27T14:06:41.738Z,26.16
2018-04-27T14:09:08.264Z,26.28
2018-04-27T14:11:34.705Z,26.24
2018-04-27T14:14:01.115Z,26.36
2018-04-27T14:16:27.581Z,26.40
2018-04-27T14:18:53.996Z,26.12
2018-04-27T14:21:20.796Z,25.87
2018-04-27T14:23:47.236Z,25.56
2018-04-27T14:26:13.708Z,25.18
2018-04-27T14:28:40.425Z,24.87
2018-04-27T14:31:06.848Z,24.60
2018-04-27T14:33:34.252Z,24.49
2018-04-27T14:36:00.752Z,24.47
2018-04-27T14:38:27.139Z,24.38
2018-04-27T14:40:53.911Z,24.55
2018-04-27T14:43:21.308Z,24.61
2018-04-27T14:45:47.674Z,24.62
2018-04-27T14:48:15.815Z,24.71
2018-04-27T14:50:42.309Z,24.90
2018-04-27T14:53:08.665Z,24.91
2018-04-27T14:55:35.038Z,24.89
2018-04-27T14:58:01.505Z,24.95
2018-04-27T15:00:29.004Z,24.79
2018-04-27T15:02:55.613Z,24.88
2018-04-27T15:05:22.082Z,24.93
2018-04-27T15:07:48.481Z,24.91
2018-04-27T15:10:15.008Z,25.00
2018-04-27T15:12:41.505Z,24.96
2018-04-27T15:15:08.088Z,24.82
2018-04-27T15:17:34.522Z,24.68
2018-04-27T15:20:01.010Z,24.66
2018-04-27T15:22:27.555Z,24.60
2018-04-27T15:24:53.926Z,24.70
2018-04-27T15:27:20.392Z,24.59
2018-04-27T15:29:47.788Z,24.63
2018-04-27T15:32:14.217Z,24.61
2018-04-27T15:34:40.721Z,24.63
2018-04-27T15:37:07.142Z,24.46
2018-04-27T15:39:33.656Z,24.31
2018-04-27T15:42:00.063Z,24.19
2018-04-27T15:44:26.554Z,24.03
2018-04-27T15:46:53.006Z,24.02
2018-04-27T15:49:19.892Z,23.84
2018-04-27T15:51:46.361Z,23.96
2018-04-27T15:54:12.797Z,23.87
2018-04-27T15:56:39.263Z,23.82
2018-04-27T15:59:05.878Z,23.90
2018-04-27T16:01:32.365Z,23.93
2018-04-27T16:03:59.738Z,23.86
2018-04-27T16:06:26.233Z,23.82
2018-04-27T16:08:52.773Z,23.77
2018-04-27T16:11:19.801Z,23.78
2018-04-27T16:13:53.413Z,23.66
2018-04-27T16:16:21.528Z,23.57
2018-04-27T16:18:47.970Z,23.42
2018-04-27T16:21:14.559Z,23.37
2018-04-27T16:23:43.909Z,23.26
2018-04-27T16:26:10.402Z,23.14
2018-04-27T16:28:36.814Z,23.21
2018-04-27T16:31:03.443Z,22.89
2018-04-27T16:33:29.919Z,22.60
2018-04-27T16:35:56.450Z,22.43
2018-04-27T16:38:22.967Z,22.26
2018-04-27T16:40:49.918Z,22.07
2018-04-27T16:43:16.441Z,22.05
2018-04-27T16:45:43.053Z,22.14
2018-04-27T16:48:09.609Z,21.85
2018-04-27T16:50:36.228Z,21.72
2018-04-27T16:53:02.767Z,21.61
2018-04-27T16:55:29.234Z,21.40
2018-04-27T16:57:55.641Z,21.14
2018-04-27T17:00:22.186Z,20.94
2018-04-27T17:02:48.752Z,20.89
2018-04-27T17:05:15.252Z,20.95
2018-04-27T17:07:41.782Z,20.75
2018-04-27T17:10:08.592Z,20.64
2018-04-27T17:12:35.288Z,20.55
2018-04-27T17:15:01.862Z,20.40
2018-04-27T17:17:28.637Z,20.41
2018-04-27T17:19:55.291Z,20.30
2018-04-27T17:22:22.272Z,20.23
2018-04-27T17:24:48.797Z,20.24
2018-04-27T17:27:15.305Z,20.21
2018-04-27T17:29:41.882Z,20.07
2018-04-27T17:32:08.628Z,19.97
2018-04-27T17:34:35.442Z,19.96
2018-04-27T17:37:02.171Z,19.89
2018-04-27T17:39:29.645Z,19.83
2018-04-27T17:41:56.314Z,19.87
2018-04-27T17:44:22.828Z,19.78
2018-04-27T17:46:49.444Z,19.85
2018-04-27T17:49:16.143Z,20.03
2018-04-27T17:51:42.667Z,19.97
2018-04-27T17:54:09.061Z,19.85
2018-04-27T17:56:35.499Z,19.82
2018-04-27T17:59:02.003Z,19.71
2018-04-27T18:01:28.448Z,19.47
2018-04-27T18:03:54.936Z,19.48
2018-04-27T18:06:21.402Z,19.27
2018-04-27T18:08:47.921Z,18.93
2018-04-27T18:11:15.558Z,18.67
2018-04-27T18:13:42.139Z,18.62
2018-04-27T18:16:08.618Z,18.34
2018-04-27T18:18:35.177Z,18.41
2018-04-27T18:21:01.985Z,18.24
2018-04-27T18:23:28.640Z,18.42
2018-04-27T18:25:55.918Z,18.27
2018-04-27T18:28:22.690Z,18.01
2018-04-27T18:30:49.515Z,17.99
2018-04-27T18:33:16.278Z,17.81
2018-04-27T18:35:43.819Z,17.83
2018-04-27T18:38:10.419Z,17.74
2018-04-27T18:40:37.714Z,17.69
2018-04-27T18:43:04.859Z,17.78
2018-04-27T18:45:33.610Z,17.67
2018-04-27T18:48:00.931Z,17.63
2018-04-27T18:50:28.133Z,17.96
2018-04-27T18:52:55.407Z,17.92
2018-04-27T18:55:22.256Z,17.71
2018-04-27T18:57:49.324Z,17.53
2018-04-27T19:00:16.404Z,17.28
2018-04-27T19:02:44.510Z,17.13
2018-04-27T19:05:11.513Z,17.10
2018-04-27T19:07:38.564Z,17.19
2018-04-27T19:10:05.515Z,17.38
2018-04-27T19:12:32.733Z,17.33
2018-04-27T19:15:00.002Z,17.31
2018-04-27T19:17:35.307Z,17.19
2018-04-27T19:20:12.504Z,17.18
2018-04-27T19:22:41.369Z,17.13
2018-04-27T19:25:08.148Z,17.01
2018-04-27T19:27:34.941Z,16.96
2018-04-27T19:30:01.920Z,16.84
2018-04-27T19:32:29.103Z,16.64
2018-04-27T19:34:56.355Z,16.51
2018-04-27T19:37:23.476Z,16.41
2018-04-27T19:39:50.657Z,16.37
2018-04-27T19:42:17.680Z,16.19
2018-04-27T19:44:44.979Z,16.20
2018-04-27T19:47:12.162Z,16.14
2018-04-27T19:49:39.707Z,15.96
2018-04-27T19:52:06.601Z,15.92
2018-04-27T19:54:33.489Z,15.77
2018-04-27T19:57:00.577Z,15.69
2018-04-27T19:59:27.805Z,15.63
2018-04-27T20:01:54.845Z,15.63
2018-04-27T20:04:22.292Z,15.61
2018-04-27T20:06:49.358Z,15.47
2018-04-27T20:09:16.181Z,15.39
2018-04-27T20:11:42.889Z,15.38
2018-04-27T20:14:10.245Z,15.36
2018-04-27T20:16:38.477Z,15.33
2018-04-27T20:19:06.206Z,15.30
2018-04-27T20:21:33.503Z,15.23
2018-04-27T20:24:03.452Z,15.15
2018-04-27T20:26:30.212Z,15.09
2018-04-27T20:28:57.629Z,15.09
2018-04-27T20:31:24.457Z,15.16
2018-04-27T20:33:51.303Z,15.27
2018-04-27T20:36:18.619Z,15.33
2018-04-27T20:38:45.392Z,15.29
2018-04-27T20:41:12.482Z,15.26
2018-04-27T20:43:40.605Z,15.31
2018-04-27T20:46:08.721Z,15.18
2018-04-27T20:48:35.637Z,15.05
2018-04-27T20:51:03.201Z,14.89
2018-04-27T20:53:38.180Z,14.74
2018-04-27T20:56:05.006Z,14.66
2018-04-27T20:58:31.727Z,14.55
2018-04-27T21:00:58.593Z,14.49
2018-04-27T21:03:25.333Z,14.47
2018-04-27T21:05:51.875Z,14.50
2018-04-27T21:08:18.336Z,14.51
2018-04-27T21:10:44.872Z,14.46
2018-04-27T21:13:11.351Z,14.38
2018-04-27T21:15:38.535Z,14.38
2018-04-27T21:18:05.036Z,14.39
2018-04-27T21:20:31.592Z,14.35
2018-04-27T21:22:58.002Z,14.28
2018-04-27T21:25:29.361Z,14.28
2018-04-27T21:27:56.183Z,14.15
2018-04-27T21:30:22.808Z,14.12
2018-04-27T21:32:49.492Z,14.06
2018-04-27T21:35:16.002Z,14.06
2018-04-27T21:37:44.381Z,14.07
2018-04-27T21:40:11.008Z,14.00
2018-04-27T21:42:37.735Z,13.94
2018-04-27T21:45:05.282Z,13.85
2018-04-27T21:47:40.755Z,13.83
2018-04-27T21:50:08.569Z,13.75
2018-04-27T21:52:37.660Z,13.65
2018-04-27T21:55:06.663Z,13.59
2018-04-27T21:57:37.804Z,13.49
2018-04-27T22:03:04.778Z,13.43
2018-04-27T22:05:47.955Z,13.35
2018-04-27T22:08:16.456Z,13.37
2018-04-27T22:10:43.073Z,13.30
2018-04-27T22:13:09.505Z,13.27
2018-04-27T22:15:35.958Z,13.23
2018-04-27T22:18:07.173Z,13.17
2018-04-27T22:20:34.458Z,13.16
2018-04-27T22:23:00.952Z,13.16
2018-04-27T22:25:28.203Z,13.14
2018-04-27T22:27:56.488Z,13.09
2018-04-27T22:30:28.807Z,13.01
2018-04-27T22:32:55.290Z,12.95
2018-04-27T22:35:21.785Z,12.93
2018-04-27T22:37:51.412Z,12.90
2018-04-27T22:40:21.674Z,12.86
2018-04-27T22:42:48.187Z,12.84
2018-04-27T22:45:16.667Z,12.83
2018-04-27T22:47:43.083Z,12.80
2018-04-27T22:50:09.645Z,12.77
2018-04-27T22:52:40.004Z,12.75
2018-04-27T22:55:11.196Z,12.70
2018-04-27T22:57:38.614Z,12.75
2018-04-27T23:00:06.075Z,12.89
2018-04-27T23:02:32.520Z,12.94
2018-04-27T23:08:07.992Z,12.61
2018-04-27T23:10:45.390Z,12.69
2018-04-27T23:13:18.895Z,12.59
2018-04-27T23:15:45.325Z,12.47
2018-04-27T23:18:11.746Z,12.41
2018-04-27T23:20:38.331Z,12.43
2018-04-27T23:23:05.837Z,12.43
2018-04-27T23:25:34.154Z,12.44
2018-04-27T23:28:00.627Z,12.39
2018-04-27T23:30:36.574Z,12.35
2018-04-27T23:33:03.110Z,12.38
2018-04-27T23:35:29.483Z,12.37
2018-04-27T23:37:55.949Z,12.35
2018-04-27T23:40:22.752Z,12.35
2018-04-27T23:42:49.600Z,12.34
2018-04-27T23:45:19.057Z,12.36
2018-04-27T23:47:47.504Z,12.31
2018-04-27T23:50:16.541Z,12.27
2018-04-27T23:52:43.558Z,12.29
2018-04-27T23:55:10.063Z,12.29
2018-04-27T23:57:36.824Z,12.25
